Time;durP1;ratioP1;P1;durP2;ratioP2;P2;SDS_P1;SDS_P2;PMS_P1;PMS_P2;Temp;Humidity;BMP_temperature;BMP_pressure;BME280_temperature;BME280_humidity;BME280_pressure;Samples;Min_cycle;Max_cycle;Signal;HPM_P1;HPM_P2
2021/11/09 00:00:41;;;;;;;5.82;4.45;;;8.30;99.90;;;;;;2104718;28;20024;-71
2021/11/09 00:01:54;;;;;;;7.18;4.60;;;8.30;99.90;;;;;;2104789;28;20043;-70
2021/11/09 00:02:55;;;;;;;6.13;4.25;;;8.30;99.90;;;;;;2098241;28;20028;-71
2021/11/09 00:04:03;;;;;;;7.07;4.40;;;8.30;99.90;;;;;;2105772;28;20024;-71
2021/11/09 00:05:05;;;;;;;7.13;4.10;;;8.30;99.90;;;;;;2105281;28;20039;-71
2021/11/09 00:08:25;;;;;;;6.78;4.05;;;8.30;99.90;;;;;;2094173;28;20021;-71
2021/11/09 00:09:30;;;;;;;5.55;3.88;;;8.30;99.90;;;;;;2106152;28;20024;-71
2021/11/09 00:10:30;;;;;;;6.90;4.22;;;8.30;99.90;;;;;;2105846;28;20499;-70
2021/11/09 00:11:31;;;;;;;6.32;4.20;;;8.30;99.90;;;;;;2103457;28;20045;-71
2021/11/09 00:12:38;;;;;;;4.82;3.72;;;8.30;99.90;;;;;;2105102;28;20036;-70
2021/11/09 00:13:39;;;;;;;5.57;4.03;;;8.30;99.90;;;;;;2097748;28;20025;-70
2021/11/09 00:14:40;;;;;;;7.45;4.53;;;8.30;99.90;;;;;;2104503;28;20492;-70
2021/11/09 00:15:42;;;;;;;7.22;4.18;;;8.30;99.90;;;;;;2103477;28;20024;-70
2021/11/09 00:16:42;;;;;;;6.93;4.50;;;8.30;99.90;;;;;;2103866;28;20624;-70
2021/11/09 00:17:45;;;;;;;10.32;4.57;;;8.30;99.90;;;;;;2104948;28;20081;-70
2021/11/09 00:18:48;;;;;;;8.07;4.40;;;8.30;99.90;;;;;;2096831;28;20032;-70
2021/11/09 00:19:49;;;;;;;6.75;4.53;;;8.30;99.90;;;;;;2105646;28;20122;-70
2021/11/09 00:20:49;;;;;;;8.23;4.82;;;8.30;99.90;;;;;;2104470;28;20027;-70
2021/11/09 00:21:50;;;;;;;9.63;4.75;;;8.30;99.90;;;;;;2104692;28;20556;-70
2021/11/09 00:22:51;;;;;;;7.13;4.40;;;8.30;99.90;;;;;;2105093;28;20406;-70
2021/11/09 00:23:52;;;;;;;8.15;4.85;;;8.30;99.90;;;;;;2104954;28;20737;-70
2021/11/09 00:24:53;;;;;;;7.35;4.75;;;8.30;99.90;;;;;;2105438;28;20032;-70
2021/11/09 00:25:53;;;;;;;9.25;4.82;;;8.30;99.90;;;;;;2097775;28;20034;-70
2021/11/09 00:26:54;;;;;;;9.25;5.40;;;8.30;99.90;;;;;;2097139;28;20028;-70
2021/11/09 00:27:55;;;;;;;8.95;5.30;;;8.30;99.90;;;;;;2096664;28;20511;-71
2021/11/09 00:28:58;;;;;;;8.70;5.07;;;8.30;99.90;;;;;;2088224;28;20095;-70
2021/11/09 00:29:59;;;;;;;10.70;5.43;;;8.30;99.90;;;;;;2088647;28;20525;-70
2021/11/09 00:31:00;;;;;;;9.45;5.38;;;8.20;99.90;;;;;;2096749;28;20107;-70
2021/11/09 00:32:01;;;;;;;10.65;6.18;;;8.20;99.90;;;;;;2096270;28;20028;-70
2021/11/09 00:33:03;;;;;;;16.70;8.63;;;8.20;99.90;;;;;;2088256;28;20416;-70
2021/11/09 00:34:05;;;;;;;13.32;6.03;;;8.20;99.90;;;;;;2088568;28;20117;-74
2021/11/09 00:35:07;;;;;;;11.98;6.20;;;8.20;99.90;;;;;;2096671;28;20028;-70
2021/11/09 00:36:07;;;;;;;9.98;5.72;;;8.20;99.90;;;;;;2096423;28;20024;-70
2021/11/09 00:37:08;;;;;;;9.82;5.65;;;8.20;99.90;;;;;;2096535;28;20184;-70
2021/11/09 00:38:10;;;;;;;10.95;5.70;;;8.20;99.90;;;;;;2097312;28;20170;-70
2021/11/09 00:39:12;;;;;;;12.68;5.70;;;8.20;99.90;;;;;;2097397;28;20040;-70
2021/11/09 00:40:15;;;;;;;13.50;5.80;;;8.20;99.90;;;;;;2097208;28;20764;-70
2021/11/09 00:41:16;;;;;;;9.65;5.55;;;8.20;99.90;;;;;;2096298;28;20028;-72
2021/11/09 00:42:17;;;;;;;12.13;5.85;;;8.10;99.90;;;;;;2097209;28;20564;-70
2021/11/09 00:43:18;;;;;;;11.23;5.60;;;8.10;99.90;;;;;;2097140;28;20111;-70
2021/11/09 00:44:19;;;;;;;10.80;5.40;;;8.10;99.90;;;;;;2097145;28;20020;-70
2021/11/09 00:45:20;;;;;;;12.05;6.05;;;8.10;99.90;;;;;;2096507;28;20028;-70
2021/11/09 00:46:21;;;;;;;9.32;5.32;;;8.10;99.90;;;;;;2096258;28;20023;-70
2021/11/09 00:47:22;;;;;;;9.50;5.65;;;8.20;99.90;;;;;;2096342;28;20039;-70
2021/11/09 00:48:23;;;;;;;8.90;5.60;;;8.10;99.90;;;;;;2096518;28;20032;-70
2021/11/09 00:49:24;;;;;;;9.77;6.03;;;8.10;99.90;;;;;;2096345;28;20119;-70
2021/11/09 00:50:25;;;;;;;11.73;5.78;;;8.10;99.90;;;;;;2096382;28;20066;-70
2021/11/09 00:51:26;;;;;;;11.05;5.88;;;8.10;99.90;;;;;;2096830;28;20033;-70
2021/11/09 00:52:26;;;;;;;9.13;5.35;;;8.10;99.90;;;;;;2096502;28;20055;-71
2021/11/09 00:53:27;;;;;;;10.15;5.47;;;8.10;99.90;;;;;;2096661;28;20032;-71
2021/11/09 00:54:28;;;;;;;11.60;5.80;;;8.10;99.90;;;;;;2097510;28;20028;-71
2021/11/09 00:55:29;;;;;;;12.85;5.97;;;8.10;99.90;;;;;;2097313;28;20480;-71
2021/11/09 00:56:31;;;;;;;11.02;5.53;;;8.10;99.90;;;;;;2097034;28;20446;-70
2021/11/09 00:57:32;;;;;;;9.32;5.50;;;8.10;99.90;;;;;;2096780;28;20048;-70
2021/11/09 00:58:33;;;;;;;14.18;5.93;;;8.10;99.90;;;;;;2097049;28;20032;-69
2021/11/09 00:59:33;;;;;;;9.43;5.82;;;8.10;99.90;;;;;;2097033;28;20032;-71
2021/11/09 01:00:35;;;;;;;10.90;5.93;;;8.10;99.90;;;;;;2096592;28;20028;-72
2021/11/09 01:01:36;;;;;;;9.85;5.35;;;8.20;99.90;;;;;;2096626;28;20036;-71
2021/11/09 01:02:36;;;;;;;11.43;5.57;;;8.20;99.90;;;;;;2097027;28;20020;-71
2021/11/09 01:03:37;;;;;;;10.15;5.75;;;8.20;99.90;;;;;;2096335;28;20032;-71
2021/11/09 01:04:38;;;;;;;9.57;5.57;;;8.20;99.90;;;;;;2096396;28;20044;-71
2021/11/09 01:05:39;;;;;;;11.10;5.45;;;8.20;99.90;;;;;;2097076;28;20028;-71
2021/11/09 01:06:40;;;;;;;10.35;5.55;;;8.20;99.90;;;;;;2097016;28;20794;-71
2021/11/09 01:07:41;;;;;;;9.10;5.80;;;8.20;99.90;;;;;;2097086;28;20082;-71
2021/11/09 01:08:41;;;;;;;9.30;5.45;;;8.20;99.90;;;;;;2096860;28;20017;-71
2021/11/09 01:09:42;;;;;;;8.95;5.03;;;8.10;99.90;;;;;;2097105;28;20407;-71
2021/11/09 01:10:46;;;;;;;10.85;5.43;;;8.20;99.90;;;;;;2096654;28;20021;-71
2021/11/09 01:11:47;;;;;;;9.57;5.20;;;8.10;99.90;;;;;;2096714;28;20177;-71
2021/11/09 01:12:48;;;;;;;8.20;5.15;;;8.10;99.90;;;;;;2097235;28;20029;-72
2021/11/09 01:13:49;;;;;;;9.40;5.13;;;8.20;99.90;;;;;;2096289;28;20507;-72
2021/11/09 01:14:50;;;;;;;10.32;5.65;;;8.20;99.90;;;;;;2096383;28;20040;-71
2021/11/09 01:15:53;;;;;;;9.15;5.88;;;8.20;99.90;;;;;;2096306;28;20063;-71
2021/11/09 01:16:54;;;;;;;10.50;5.90;;;8.10;99.90;;;;;;2096723;28;20043;-71
2021/11/09 01:17:57;;;;;;;9.45;5.85;;;8.10;99.90;;;;;;2096874;28;20029;-71
2021/11/09 01:19:00;;;;;;;11.07;5.80;;;8.10;99.90;;;;;;2096107;28;20024;-72
2021/11/09 01:20:02;;;;;;;9.27;5.35;;;8.10;99.90;;;;;;2096270;28;20024;-71
2021/11/09 01:21:04;;;;;;;10.32;5.88;;;8.10;99.90;;;;;;2095638;28;20111;-72
2021/11/09 01:22:05;;;;;;;12.25;5.95;;;8.10;99.90;;;;;;2087860;28;20029;-72
2021/11/09 01:23:06;;;;;;;9.10;5.40;;;8.10;99.90;;;;;;2096307;28;20048;-72
2021/11/09 01:24:07;;;;;;;8.88;5.65;;;8.10;99.90;;;;;;2096935;28;20500;-71
2021/11/09 01:25:09;;;;;;;9.23;5.20;;;8.10;99.90;;;;;;2096906;28;20033;-71
2021/11/09 01:26:11;;;;;;;8.77;5.30;;;8.20;99.90;;;;;;2096927;28;20039;-72
2021/11/09 01:27:11;;;;;;;9.80;5.68;;;8.20;99.90;;;;;;2096975;28;20032;-71
2021/11/09 01:28:12;;;;;;;10.15;6.05;;;8.20;99.90;;;;;;2096942;28;20024;-72
2021/11/09 01:29:14;;;;;;;9.85;5.68;;;8.20;99.90;;;;;;2096863;28;20037;-72
2021/11/09 01:30:17;;;;;;;9.43;5.53;;;8.20;99.90;;;;;;2096813;28;20025;-72
2021/11/09 01:31:18;;;;;;;9.63;5.50;;;8.20;99.90;;;;;;2095397;28;20069;-71
2021/11/09 01:32:19;;;;;;;9.63;5.68;;;8.20;99.90;;;;;;2096328;28;20032;-71
2021/11/09 01:33:20;;;;;;;9.80;5.53;;;8.20;99.90;;;;;;2096277;28;20021;-71
2021/11/09 01:34:21;;;;;;;7.80;5.00;;;8.20;99.90;;;;;;2096309;28;20091;-71
2021/11/09 01:35:22;;;;;;;9.07;5.70;;;8.20;99.90;;;;;;2096455;28;20115;-71
2021/11/09 01:36:23;;;;;;;8.82;5.43;;;8.20;99.90;;;;;;2096408;28;20032;-71
2021/11/09 01:37:23;;;;;;;11.57;6.00;;;8.20;99.90;;;;;;2096840;28;20472;-71
2021/11/09 01:38:24;;;;;;;10.55;5.55;;;8.20;99.90;;;;;;2096432;28;20028;-71
2021/11/09 01:39:25;;;;;;;9.88;5.60;;;8.20;99.90;;;;;;2096176;28;20028;-71
2021/11/09 01:40:25;;;;;;;9.55;5.32;;;8.20;99.90;;;;;;2095644;28;20395;-71
2021/11/09 01:41:27;;;;;;;6.95;5.03;;;8.20;99.90;;;;;;2095928;28;20032;-71
2021/11/09 01:42:27;;;;;;;9.43;5.43;;;8.20;99.90;;;;;;2096846;28;20660;-71
2021/11/09 01:43:29;;;;;;;8.35;5.10;;;8.20;99.90;;;;;;2097024;28;20060;-71
2021/11/09 01:44:30;;;;;;;9.48;5.30;;;8.20;99.90;;;;;;2096492;28;20099;-71
2021/11/09 01:45:31;;;;;;;10.50;5.47;;;8.30;99.90;;;;;;2088402;28;20040;-70
2021/11/09 01:46:32;;;;;;;7.63;5.30;;;8.30;99.90;;;;;;2096562;28;20047;-71
2021/11/09 01:47:33;;;;;;;8.82;5.22;;;8.30;99.90;;;;;;2096064;28;20020;-71
2021/11/09 01:48:34;;;;;;;7.68;5.13;;;8.20;99.90;;;;;;2096325;28;20071;-72
2021/11/09 01:49:35;;;;;;;9.88;5.40;;;8.30;99.90;;;;;;2096463;28;20700;-71
2021/11/09 01:50:40;;;;;;;8.57;5.30;;;8.30;99.90;;;;;;2087620;28;20061;-70
2021/11/09 01:51:41;;;;;;;9.10;5.40;;;8.30;99.90;;;;;;2080815;28;20703;-71
2021/11/09 01:52:42;;;;;;;10.95;5.78;;;8.20;99.90;;;;;;2096358;28;20040;-71
2021/11/09 01:53:48;;;;;;;8.23;5.40;;;8.20;99.90;;;;;;2096608;28;20649;-71
2021/11/09 01:54:48;;;;;;;8.57;5.38;;;8.20;99.90;;;;;;2096732;28;20036;-70
2021/11/09 01:55:50;;;;;;;9.23;5.50;;;8.20;99.90;;;;;;2104481;28;20029;-70
2021/11/09 01:56:51;;;;;;;9.13;5.63;;;8.20;99.90;;;;;;2104404;28;20110;-70
2021/11/09 01:57:53;;;;;;;8.25;5.22;;;8.20;99.90;;;;;;2104535;28;20109;-70
2021/11/09 01:58:55;;;;;;;9.20;5.57;;;8.20;99.90;;;;;;2105067;28;20064;-71
2021/11/09 01:59:58;;;;;;;8.13;5.07;;;8.20;99.90;;;;;;2105195;28;20080;-70
2021/11/09 02:01:07;;;;;;;10.50;5.57;;;8.20;99.90;;;;;;2103879;28;20078;-69
2021/11/09 02:02:08;;;;;;;8.73;5.25;;;8.20;99.90;;;;;;2096937;28;20025;-70
2021/11/09 02:03:09;;;;;;;10.75;5.85;;;8.20;99.90;;;;;;2096117;28;20052;-72
2021/11/09 02:04:10;;;;;;;11.23;5.88;;;8.20;99.90;;;;;;2104676;28;20040;-72
2021/11/09 02:05:13;;;;;;;10.88;5.95;;;8.20;99.90;;;;;;2105268;28;20375;-71
2021/11/09 02:06:14;;;;;;;9.35;6.03;;;8.30;99.90;;;;;;2105207;28;20060;-71
2021/11/09 02:07:15;;;;;;;10.52;5.72;;;8.30;99.90;;;;;;2104477;28;20111;-71
2021/11/09 02:08:17;;;;;;;8.73;5.63;;;8.30;99.90;;;;;;2104585;28;20499;-71
2021/11/09 02:09:18;;;;;;;9.40;5.30;;;8.20;99.90;;;;;;2104486;28;20016;-71
2021/11/09 02:10:22;;;;;;;7.72;4.90;;;8.30;99.90;;;;;;2104368;28;20024;-71
2021/11/09 02:11:23;;;;;;;7.93;5.13;;;8.30;99.90;;;;;;2104263;28;20123;-71
2021/11/09 02:12:23;;;;;;;7.57;5.40;;;8.30;99.90;;;;;;2104372;28;20656;-71
2021/11/09 02:13:25;;;;;;;8.80;5.28;;;8.30;99.90;;;;;;2104479;28;20040;-71
2021/11/09 02:14:26;;;;;;;9.15;5.38;;;8.30;99.90;;;;;;2105041;28;20502;-71
2021/11/09 02:15:28;;;;;;;9.88;5.68;;;8.30;99.90;;;;;;2105000;28;20050;-71
2021/11/09 02:16:29;;;;;;;9.85;6.15;;;8.30;99.90;;;;;;2104352;28;20036;-71
2021/11/09 02:17:30;;;;;;;11.70;7.22;;;8.30;99.90;;;;;;2095933;28;20422;-71
2021/11/09 02:18:31;;;;;;;13.18;8.02;;;8.30;99.90;;;;;;2104597;28;20035;-71
2021/11/09 02:19:32;;;;;;;13.98;7.78;;;8.30;99.90;;;;;;2105104;28;20054;-71
2021/11/09 02:20:33;;;;;;;14.13;8.10;;;8.30;99.90;;;;;;2104326;28;20042;-71
2021/11/09 02:21:34;;;;;;;13.48;8.25;;;8.30;99.90;;;;;;2104672;28;20074;-71
2021/11/09 02:22:35;;;;;;;12.20;7.55;;;8.30;99.90;;;;;;2105155;28;20020;-72
2021/11/09 02:23:38;;;;;;;11.10;7.53;;;8.30;99.90;;;;;;2105058;28;20070;-71
2021/11/09 02:24:38;;;;;;;11.73;7.13;;;8.30;99.90;;;;;;2105049;28;20016;-71
2021/11/09 02:25:41;;;;;;;11.50;6.90;;;8.30;99.90;;;;;;2105049;28;20020;-69
2021/11/09 02:26:41;;;;;;;12.38;6.90;;;8.30;99.90;;;;;;2104980;28;20027;-71
2021/11/09 02:27:42;;;;;;;10.82;6.03;;;8.30;99.90;;;;;;2105046;28;20371;-71
2021/11/09 02:28:45;;;;;;;9.55;6.10;;;8.30;99.90;;;;;;2105488;28;20857;-71
2021/11/09 02:29:46;;;;;;;8.82;5.68;;;8.30;99.90;;;;;;2106512;28;20024;-71
2021/11/09 02:30:47;;;;;;;10.35;5.85;;;8.30;99.90;;;;;;2105952;28;20383;-71
2021/11/09 02:31:48;;;;;;;11.18;5.82;;;8.30;99.90;;;;;;2106242;28;20032;-72
2021/11/09 02:32:50;;;;;;;9.82;5.72;;;8.30;99.90;;;;;;2106547;28;20043;-71
2021/11/09 02:33:50;;;;;;;11.73;5.75;;;8.30;99.90;;;;;;2106593;28;20020;-71
2021/11/09 02:34:51;;;;;;;8.07;5.13;;;8.30;99.90;;;;;;2106653;28;20040;-70
2021/11/09 02:35:52;;;;;;;8.73;5.60;;;8.30;99.90;;;;;;2105939;28;20035;-71
2021/11/09 02:36:52;;;;;;;10.45;6.07;;;8.30;99.90;;;;;;2105926;28;20116;-71
2021/11/09 02:37:56;;;;;;;8.20;5.45;;;8.30;99.90;;;;;;2106562;28;20028;-71
2021/11/09 02:38:57;;;;;;;9.23;5.20;;;8.30;99.90;;;;;;2106349;28;20043;-71
2021/11/09 02:40:00;;;;;;;7.05;4.97;;;8.30;99.90;;;;;;2105829;28;20419;-71
2021/11/09 02:41:01;;;;;;;8.93;5.45;;;8.30;99.90;;;;;;2105482;28;20032;-70
2021/11/09 02:42:09;;;;;;;8.77;5.30;;;8.30;99.90;;;;;;2105442;28;20036;-70
2021/11/09 02:43:13;;;;;;;8.95;5.32;;;8.30;99.90;;;;;;2106020;28;20039;-69
2021/11/09 02:44:14;;;;;;;8.88;5.20;;;8.30;99.90;;;;;;2106510;28;20035;-69
2021/11/09 02:45:22;;;;;;;8.93;5.30;;;8.30;99.90;;;;;;2106374;28;20080;-70
2021/11/09 02:47:27;;;;;;;7.90;5.10;;;8.30;99.90;;;;;;2106347;28;20070;-70
2021/11/09 02:48:33;;;;;;;8.32;5.50;;;8.30;99.90;;;;;;2105784;28;20433;-70
2021/11/09 02:49:53;;;;;;;10.15;5.60;;;8.30;99.90;;;;;;2106012;28;20051;-70
2021/11/09 02:51:00;;;;;;;9.60;5.45;;;8.30;99.90;;;;;;2105723;28;20791;-70
2021/11/09 02:52:05;;;;;;;7.35;5.28;;;8.30;99.90;;;;;;2105518;28;20556;-70
2021/11/09 02:53:12;;;;;;;8.15;5.25;;;8.30;99.90;;;;;;2097796;28;20041;-70
2021/11/09 02:55:26;;;;;;;9.60;5.85;;;8.30;99.90;;;;;;2105781;28;20036;-70
2021/11/09 02:56:36;;;;;;;9.73;5.93;;;8.30;99.90;;;;;;2106454;28;20035;-70
2021/11/09 02:57:45;;;;;;;10.50;6.35;;;8.30;99.90;;;;;;2106544;28;20431;-71
2021/11/09 03:01:09;;;;;;;11.77;6.70;;;8.20;99.90;;;;;;2105305;28;20036;-71
2021/11/09 03:03:52;;;;;;;12.15;7.18;;;8.20;99.90;;;;;;2106367;28;20028;-71
2021/11/09 03:05:14;;;;;;;15.32;7.85;;;8.20;99.90;;;;;;2097744;28;20028;-71
2021/11/09 03:08:47;;;;;;;12.43;6.47;;;8.20;99.90;;;;;;2105772;28;20391;-72
2021/11/09 03:09:55;;;;;;;12.90;6.88;;;8.20;99.90;;;;;;2106572;28;20104;-71
2021/11/09 03:10:56;;;;;;;10.13;6.28;;;8.20;99.90;;;;;;2106142;28;20047;-72
2021/11/09 03:11:59;;;;;;;10.82;6.13;;;8.20;99.90;;;;;;2106361;28;20042;-72
2021/11/09 03:13:01;;;;;;;10.20;6.18;;;8.20;99.90;;;;;;2106065;28;20024;-72
2021/11/09 03:14:01;;;;;;;10.63;5.68;;;8.20;99.90;;;;;;2097776;28;20028;-71
2021/11/09 03:15:05;;;;;;;8.60;5.88;;;8.20;99.90;;;;;;2105782;28;20036;-71
2021/11/09 03:16:10;;;;;;;10.23;5.95;;;8.30;99.90;;;;;;2107310;28;20074;-71
2021/11/09 03:17:20;;;;;;;11.02;6.15;;;8.30;99.90;;;;;;2099382;28;20029;-71
2021/11/09 03:18:24;;;;;;;9.55;6.13;;;8.20;99.90;;;;;;2100750;28;20049;-71
2021/11/09 03:19:39;;;;;;;10.23;6.03;;;8.30;99.90;;;;;;2107816;28;20032;-70
2021/11/09 03:40:50;;;;;;;11.88;6.80;;;8.30;99.90;;;;;;2105557;28;20115;-71
2021/11/09 03:45:40;;;;;;;8.55;5.60;;;8.20;99.90;;;;;;2106242;28;20043;-71
2021/11/09 03:46:42;;;;;;;9.20;5.82;;;8.20;99.90;;;;;;2105826;28;20020;-71
2021/11/09 03:47:46;;;;;;;11.05;5.78;;;8.20;99.90;;;;;;2105812;28;20028;-71
2021/11/09 03:48:46;;;;;;;9.75;5.90;;;8.20;99.90;;;;;;2106295;28;20064;-71
2021/11/09 03:49:48;;;;;;;9.23;5.90;;;8.20;99.90;;;;;;2106339;28;20031;-71
2021/11/09 03:50:50;;;;;;;9.38;5.70;;;8.20;99.90;;;;;;2104707;28;20036;-71
2021/11/09 03:51:52;;;;;;;8.45;5.80;;;8.20;99.90;;;;;;2097247;28;20048;-71
2021/11/09 03:52:58;;;;;;;9.75;5.30;;;8.20;99.90;;;;;;2105592;28;20151;-71
2021/11/09 03:54:01;;;;;;;7.53;5.20;;;8.20;99.90;;;;;;2101216;28;20481;-71
2021/11/09 03:55:05;;;;;;;8.63;5.38;;;8.20;99.90;;;;;;2096977;28;20035;-71
2021/11/09 03:56:16;;;;;;;9.63;5.32;;;8.20;99.90;;;;;;2097384;28;20024;-71
2021/11/09 03:57:32;;;;;;;8.15;5.25;;;8.20;99.90;;;;;;2106203;28;20035;-71
2021/11/09 03:58:41;;;;;;;8.77;5.43;;;8.20;99.90;;;;;;2106072;28;20133;-71
2021/11/09 04:04:47;;;;;;;9.95;5.25;;;8.20;99.90;;;;;;2106124;28;20030;-71
2021/11/09 04:05:40;;;;;;;8.30;5.28;;;8.20;99.90;;;;;;2105729;28;20032;-71
2021/11/09 04:06:45;;;;;;;10.98;6.00;;;8.20;99.90;;;;;;2105644;28;20035;-71
2021/11/09 04:08:01;;;;;;;12.68;6.30;;;8.20;99.90;;;;;;2105924;28;20043;-71
2021/11/09 04:10:39;;;;;;;12.38;6.30;;;8.20;99.90;;;;;;2099620;28;20036;-71
2021/11/09 04:13:10;;;;;;;8.65;5.47;;;8.20;99.90;;;;;;2106051;28;20092;-71
2021/11/09 04:15:42;;;;;;;11.35;5.38;;;8.20;99.90;;;;;;2105874;28;20123;-71
2021/11/09 04:16:50;;;;;;;10.03;5.40;;;8.20;99.90;;;;;;2106479;28;20043;-71
2021/11/09 04:23:34;;;;;;;11.20;6.40;;;8.20;99.90;;;;;;2105227;28;20016;-70
2021/11/09 04:28:21;;;;;;;8.68;5.10;;;8.20;99.90;;;;;;2105865;28;20032;-71
2021/11/09 04:29:35;;;;;;;8.40;5.13;;;8.20;99.90;;;;;;2106103;28;20801;-72
2021/11/09 04:34:44;;;;;;;9.00;6.28;;;8.20;99.90;;;;;;2105660;28;20123;-70
2021/11/09 04:36:06;;;;;;;9.05;5.80;;;8.20;99.90;;;;;;2105677;28;20036;-70
2021/11/09 04:43:16;;;;;;;10.43;6.22;;;8.10;99.90;;;;;;2105740;28;20032;-70
2021/11/09 04:44:52;;;;;;;8.93;5.70;;;8.10;99.90;;;;;;2105021;28;20028;-70
2021/11/09 04:48:36;;;;;;;10.85;5.75;;;8.10;99.90;;;;;;2105574;28;20024;-70
2021/11/09 05:01:17;;;;;;;12.57;6.13;;;8.10;99.90;;;;;;2105120;28;20019;-70
2021/11/09 05:10:22;;;;;;;9.85;5.85;;;8.10;99.90;;;;;;2105523;28;20435;-69
2021/11/09 05:11:01;;;;;;;13.43;7.07;;;8.10;99.90;;;;;;2104348;28;20482;-69
2021/11/09 05:12:03;;;;;;;13.05;6.60;;;8.10;99.90;;;;;;2105066;28;20035;-71
2021/11/09 05:13:03;;;;;;;11.07;6.43;;;8.10;99.90;;;;;;2105282;28;20027;-70
2021/11/09 05:14:07;;;;;;;11.57;6.38;;;8.10;99.90;;;;;;2105346;28;20068;-70
2021/11/09 05:15:07;;;;;;;10.95;6.05;;;8.10;99.90;;;;;;2104751;28;20070;-70
2021/11/09 05:16:08;;;;;;;10.20;6.30;;;8.10;99.90;;;;;;2104676;28;20039;-71
2021/11/09 05:17:09;;;;;;;10.30;6.18;;;8.10;99.90;;;;;;2105308;28;20096;-71
2021/11/09 05:18:09;;;;;;;11.98;6.35;;;8.10;99.90;;;;;;2105481;28;20077;-70
2021/11/09 05:19:10;;;;;;;11.52;6.50;;;8.10;99.90;;;;;;2104845;28;20147;-70
2021/11/09 05:20:11;;;;;;;9.80;5.70;;;8.10;99.90;;;;;;2104971;28;20023;-71
2021/11/09 05:21:12;;;;;;;9.57;5.72;;;8.10;99.90;;;;;;2104704;28;20188;-69
2021/11/09 05:22:12;;;;;;;10.45;5.90;;;8.10;99.90;;;;;;2105399;28;20024;-69
2021/11/09 05:23:13;;;;;;;10.00;5.80;;;8.10;99.90;;;;;;2105390;28;20025;-70
2021/11/09 05:24:14;;;;;;;9.90;6.05;;;8.10;99.90;;;;;;2105543;28;20059;-70
2021/11/09 05:25:15;;;;;;;10.60;6.15;;;8.10;99.90;;;;;;2105570;28;20028;-70
2021/11/09 05:26:16;;;;;;;9.32;5.40;;;8.10;99.90;;;;;;2106224;28;20031;-69
2021/11/09 05:27:17;;;;;;;11.25;6.13;;;8.10;99.90;;;;;;2105575;28;20476;-69
2021/11/09 05:28:18;;;;;;;8.43;6.38;;;8.10;99.90;;;;;;2105646;28;20027;-69
2021/11/09 05:29:18;;;;;;;10.70;7.00;;;8.10;99.90;;;;;;2096505;28;20028;-69
2021/11/09 05:30:20;;;;;;;11.05;6.95;;;8.10;99.90;;;;;;2096637;28;20021;-69
2021/11/09 05:31:21;;;;;;;13.20;7.57;;;8.10;99.90;;;;;;2104574;28;20502;-69
2021/11/09 05:32:22;;;;;;;10.85;6.88;;;8.10;99.90;;;;;;2105283;28;20032;-69
2021/11/09 05:33:23;;;;;;;10.07;6.30;;;8.10;99.90;;;;;;2105391;28;20027;-69
2021/11/09 05:34:26;;;;;;;12.73;6.22;;;8.10;99.90;;;;;;2096323;28;20028;-69
2021/11/09 05:35:27;;;;;;;9.07;5.90;;;8.10;99.90;;;;;;2096771;28;20033;-71
2021/11/09 05:36:37;;;;;;;9.10;5.63;;;8.10;99.90;;;;;;2105131;28;20020;-71
2021/11/09 05:37:45;;;;;;;8.27;5.57;;;8.10;99.90;;;;;;2105185;28;20031;-71
2021/11/09 05:38:53;;;;;;;10.00;5.97;;;8.10;99.90;;;;;;2105317;28;20020;-71
2021/11/09 05:39:56;;;;;;;9.80;5.55;;;8.10;99.90;;;;;;2105272;28;20518;-71
2021/11/09 05:41:03;;;;;;;9.15;5.45;;;8.10;99.90;;;;;;2104024;28;20028;-69
2021/11/09 05:42:04;;;;;;;8.27;5.68;;;8.10;99.90;;;;;;2096885;28;20029;-71
2021/11/09 05:43:05;;;;;;;10.48;6.07;;;8.10;99.90;;;;;;2104616;28;20542;-71
2021/11/09 05:44:07;;;;;;;9.32;5.57;;;8.10;99.90;;;;;;2105196;28;20031;-71
2021/11/09 05:45:09;;;;;;;10.32;6.20;;;8.10;99.90;;;;;;2104999;28;20395;-71
2021/11/09 05:46:10;;;;;;;10.45;5.63;;;8.10;99.90;;;;;;2105336;28;20020;-71
2021/11/09 05:47:11;;;;;;;10.98;6.32;;;8.10;99.90;;;;;;2105126;28;20658;-71
2021/11/09 05:48:11;;;;;;;9.40;6.07;;;8.10;99.90;;;;;;2105209;28;20024;-71
2021/11/09 05:49:12;;;;;;;11.15;6.10;;;8.10;99.90;;;;;;2105227;28;20036;-71
2021/11/09 05:50:13;;;;;;;10.27;6.10;;;8.10;99.90;;;;;;2105171;28;20036;-71
2021/11/09 05:51:14;;;;;;;10.52;5.85;;;8.10;99.90;;;;;;2104534;28;20039;-71
2021/11/09 05:52:15;;;;;;;11.70;6.55;;;8.10;99.90;;;;;;2105357;28;20040;-72
2021/11/09 05:53:16;;;;;;;9.27;6.18;;;8.10;99.90;;;;;;2104430;28;20032;-71
2021/11/09 05:54:16;;;;;;;11.38;6.60;;;8.10;99.90;;;;;;2104651;28;20085;-71
2021/11/09 05:55:18;;;;;;;9.38;6.10;;;8.10;99.90;;;;;;2105416;28;20028;-70
2021/11/09 05:56:18;;;;;;;8.93;6.00;;;8.10;99.90;;;;;;2105383;28;20028;-71
2021/11/09 05:57:27;;;;;;;9.00;5.90;;;8.10;99.90;;;;;;2106796;28;20047;-71
2021/11/09 05:58:30;;;;;;;8.00;6.13;;;8.10;99.90;;;;;;2096324;28;20399;-71
2021/11/09 05:59:30;;;;;;;10.30;6.53;;;8.10;99.90;;;;;;2097016;28;20039;-71
2021/11/09 06:00:31;;;;;;;10.23;5.90;;;8.10;99.90;;;;;;2105004;28;20028;-71
2021/11/09 06:01:31;;;;;;;10.07;6.55;;;8.00;99.90;;;;;;2105118;28;20036;-71
2021/11/09 06:02:32;;;;;;;10.25;6.68;;;8.00;99.90;;;;;;2105923;28;20024;-72
2021/11/09 06:03:32;;;;;;;9.70;6.65;;;8.10;99.90;;;;;;2105436;28;20028;-72
2021/11/09 06:04:33;;;;;;;10.93;6.43;;;8.00;99.90;;;;;;2106566;28;20024;-71
2021/11/09 06:05:34;;;;;;;10.30;6.43;;;8.00;99.90;;;;;;2107041;28;20062;-71
2021/11/09 06:06:34;;;;;;;9.77;6.78;;;8.00;99.90;;;;;;2106931;28;20024;-71
2021/11/09 06:07:35;;;;;;;10.27;7.00;;;8.00;99.90;;;;;;2106845;28;20023;-71
2021/11/09 06:08:35;;;;;;;12.50;7.45;;;8.00;99.90;;;;;;2106515;28;20031;-71
2021/11/09 06:09:36;;;;;;;17.00;8.05;;;8.00;99.90;;;;;;2106028;28;20028;-71
2021/11/09 06:10:37;;;;;;;14.45;7.68;;;8.00;99.90;;;;;;2090768;28;20428;-72
2021/11/09 06:11:37;;;;;;;12.02;7.72;;;8.00;99.90;;;;;;2104920;28;20020;-72
2021/11/09 06:12:38;;;;;;;14.70;7.85;;;8.00;99.90;;;;;;2106758;28;20471;-71
2021/11/09 06:13:38;;;;;;;17.50;8.05;;;8.00;99.90;;;;;;2105966;28;20040;-71
2021/11/09 06:14:39;;;;;;;12.75;7.72;;;8.00;99.90;;;;;;2106299;28;20077;-71
2021/11/09 06:15:40;;;;;;;16.45;7.47;;;8.10;99.90;;;;;;2105922;28;20060;-71
2021/11/09 06:16:41;;;;;;;14.60;7.63;;;8.10;99.90;;;;;;2105981;28;20052;-72
2021/11/09 06:17:41;;;;;;;11.70;6.82;;;8.20;99.90;;;;;;2106170;28;20047;-72
2021/11/09 06:18:42;;;;;;;10.52;6.50;;;8.20;99.90;;;;;;2097506;28;20110;-72
2021/11/09 06:19:43;;;;;;;14.50;7.13;;;8.20;99.90;;;;;;2106256;28;20028;-71
2021/11/09 06:20:46;;;;;;;9.90;6.50;;;8.20;99.90;;;;;;2102428;28;20155;-71
2021/11/09 06:21:47;;;;;;;15.60;6.65;;;8.10;99.90;;;;;;2097726;28;20029;-72
2021/11/09 06:22:48;;;;;;;14.20;7.30;;;8.10;99.90;;;;;;2098524;28;20021;-71
2021/11/09 06:23:50;;;;;;;14.02;6.80;;;8.10;99.90;;;;;;2098871;28;20027;-72
2021/11/09 06:24:51;;;;;;;13.80;6.90;;;8.00;99.90;;;;;;2098812;28;20103;-72
2021/11/09 06:25:51;;;;;;;14.10;6.75;;;8.00;99.90;;;;;;2098972;28;20032;-71
2021/11/09 06:26:53;;;;;;;12.93;6.72;;;8.00;99.90;;;;;;2098859;28;20043;-72
2021/11/09 06:27:53;;;;;;;11.48;6.78;;;8.00;99.90;;;;;;2098585;28;20021;-71
2021/11/09 06:28:59;;;;;;;16.65;6.90;;;8.00;99.90;;;;;;2098483;28;20029;-72
2021/11/09 06:30:00;;;;;;;13.80;7.00;;;8.00;99.90;;;;;;2098411;28;20089;-71
2021/11/09 06:31:00;;;;;;;14.45;6.80;;;8.00;99.90;;;;;;2097643;28;20029;-72
2021/11/09 06:32:01;;;;;;;12.98;7.03;;;8.00;99.90;;;;;;2098064;28;20496;-72
2021/11/09 06:33:02;;;;;;;15.20;7.03;;;8.00;99.90;;;;;;2098252;28;20033;-72
2021/11/09 06:34:04;;;;;;;14.68;7.03;;;8.00;99.90;;;;;;2098366;28;20043;-72
2021/11/09 06:35:05;;;;;;;11.77;6.80;;;8.00;99.90;;;;;;2098203;28;20403;-72
2021/11/09 06:36:06;;;;;;;12.27;6.22;;;8.00;99.90;;;;;;2098226;28;20047;-72
2021/11/09 06:37:06;;;;;;;13.10;6.82;;;8.00;99.90;;;;;;2098061;28;20048;-72
2021/11/09 06:38:07;;;;;;;13.93;6.28;;;8.00;99.90;;;;;;2098182;28;20143;-72
2021/11/09 06:39:08;;;;;;;11.43;6.25;;;8.00;99.90;;;;;;2098113;28;20032;-71
2021/11/09 06:40:10;;;;;;;10.35;6.22;;;8.00;99.90;;;;;;2098387;28;20063;-72
2021/11/09 06:41:10;;;;;;;12.25;6.43;;;8.00;99.90;;;;;;2097983;28;20036;-72
2021/11/09 06:42:11;;;;;;;11.32;6.10;;;8.00;99.90;;;;;;2097708;28;20036;-72
2021/11/09 06:43:12;;;;;;;11.23;6.40;;;8.00;99.90;;;;;;2098163;28;20029;-72
2021/11/09 06:44:12;;;;;;;11.27;6.28;;;8.00;99.90;;;;;;2098096;28;20024;-71
2021/11/09 06:45:13;;;;;;;11.13;6.88;;;8.00;99.90;;;;;;2098175;28;20028;-71
2021/11/09 06:46:14;;;;;;;13.35;6.90;;;7.90;99.90;;;;;;2098143;28;20855;-72
2021/11/09 06:47:14;;;;;;;14.52;6.88;;;7.90;99.90;;;;;;2098124;28;20052;-71
2021/11/09 06:48:17;;;;;;;18.88;8.52;;;7.90;99.90;;;;;;2098236;28;20032;-72
2021/11/09 06:49:18;;;;;;;14.93;7.57;;;7.90;99.90;;;;;;2097277;28;20017;-71
2021/11/09 06:50:20;;;;;;;14.70;8.20;;;7.80;99.90;;;;;;2097519;28;20116;-71
2021/11/09 06:51:20;;;;;;;18.42;9.30;;;7.80;99.90;;;;;;2097367;28;20024;-71
2021/11/09 06:52:21;;;;;;;16.20;8.35;;;7.70;99.90;;;;;;2098167;28;20549;-71
2021/11/09 06:53:22;;;;;;;16.20;8.50;;;7.70;99.90;;;;;;2097995;28;20400;-72